sensor_id;sensor_type;location;lat;lon;timestamp;temperature;humidity
11772;DHT22;12556;55.748;13.194;2022-10-31T00:01:49;14.00;99.90
11772;DHT22;12556;55.748;13.194;2022-10-31T00:04:16;14.00;99.90
11772;DHT22;12556;55.748;13.194;2022-10-31T00:06:43;14.00;99.90
11772;DHT22;12556;55.748;13.194;2022-10-31T00:09:10;14.00;99.90
11772;DHT22;12556;55.748;13.194;2022-10-31T00:11:39;14.00;99.90
11772;DHT22;12556;55.748;13.194;2022-10-31T00:14:06;14.00;99.90
11772;DHT22;12556;55.748;13.194;2022-10-31T00:16:33;14.00;99.90
11772;DHT22;12556;55.748;13.194;2022-10-31T00:19:02;14.00;99.90
11772;DHT22;12556;55.748;13.194;2022-10-31T00:21:31;14.00;99.90
11772;DHT22;12556;55.748;13.194;2022-10-31T00:23:58;14.00;99.90
11772;DHT22;12556;55.748;13.194;2022-10-31T00:26:26;14.00;99.90
11772;DHT22;12556;55.748;13.194;2022-10-31T00:28:55;14.00;99.90
11772;DHT22;12556;55.748;13.194;2022-10-31T00:31:22;14.00;99.90
11772;DHT22;12556;55.748;13.194;2022-10-31T00:33:49;13.90;99.90
11772;DHT22;12556;55.748;13.194;2022-10-31T00:36:17;14.00;99.90
11772;DHT22;12556;55.748;13.194;2022-10-31T00:38:45;14.00;99.90
11772;DHT22;12556;55.748;13.194;2022-10-31T00:41:13;14.00;99.90
11772;DHT22;12556;55.748;13.194;2022-10-31T00:43:40;14.00;99.90
11772;DHT22;12556;55.748;13.194;2022-10-31T00:46:09;13.90;99.90
11772;DHT22;12556;55.748;13.194;2022-10-31T00:48:36;13.90;99.90
11772;DHT22;12556;55.748;13.194;2022-10-31T00:51:04;13.90;99.90
11772;DHT22;12556;55.748;13.194;2022-10-31T00:53:31;13.90;99.90
11772;DHT22;12556;55.748;13.194;2022-10-31T00:55:58;13.90;99.90
11772;DHT22;12556;55.748;13.194;2022-10-31T00:58:25;13.90;99.90
11772;DHT22;12556;55.748;13.194;2022-10-31T01:00:52;13.90;99.90
11772;DHT22;12556;55.748;13.194;2022-10-31T01:03:23;13.90;99.90
11772;DHT22;12556;55.748;13.194;2022-10-31T01:05:58;13.90;99.90
11772;DHT22;12556;55.748;13.194;2022-10-31T01:08:25;13.90;99.90
11772;DHT22;12556;55.748;13.194;2022-10-31T01:11:06;13.90;99.90
11772;DHT22;12556;55.748;13.194;2022-10-31T01:13:33;13.80;99.90
11772;DHT22;12556;55.748;13.194;2022-10-31T01:16:03;13.80;99.90
11772;DHT22;12556;55.748;13.194;2022-10-31T01:18:32;13.80;99.90
11772;DHT22;12556;55.748;13.194;2022-10-31T01:21:03;13.80;99.90
11772;DHT22;12556;55.748;13.194;2022-10-31T01:23:31;13.80;99.90
11772;DHT22;12556;55.748;13.194;2022-10-31T01:26:00;13.80;99.90
11772;DHT22;12556;55.748;13.194;2022-10-31T01:28:27;13.80;99.90
11772;DHT22;12556;55.748;13.194;2022-10-31T01:30:54;13.80;99.90
11772;DHT22;12556;55.748;13.194;2022-10-31T01:33:21;13.80;99.90
11772;DHT22;12556;55.748;13.194;2022-10-31T01:35:49;13.70;99.90
11772;DHT22;12556;55.748;13.194;2022-10-31T01:38:16;13.70;99.90
11772;DHT22;12556;55.748;13.194;2022-10-31T01:40:43;13.80;99.90
11772;DHT22;12556;55.748;13.194;2022-10-31T01:43:13;13.80;99.90
11772;DHT22;12556;55.748;13.194;2022-10-31T01:45:40;13.80;99.90
11772;DHT22;12556;55.748;13.194;2022-10-31T01:48:12;13.80;99.90
11772;DHT22;12556;55.748;13.194;2022-10-31T01:50:40;13.80;99.90
11772;DHT22;12556;55.748;13.194;2022-10-31T01:53:10;13.80;99.90
11772;DHT22;12556;55.748;13.194;2022-10-31T01:55:39;13.80;99.90
11772;DHT22;12556;55.748;13.194;2022-10-31T01:58:10;13.80;99.90
11772;DHT22;12556;55.748;13.194;2022-10-31T02:00:40;13.70;99.90
11772;DHT22;12556;55.748;13.194;2022-10-31T02:03:08;13.70;99.90
11772;DHT22;12556;55.748;13.194;2022-10-31T02:05:36;13.70;99.90
11772;DHT22;12556;55.748;13.194;2022-10-31T02:08:07;13.70;99.90
11772;DHT22;12556;55.748;13.194;2022-10-31T02:10:37;13.70;99.90
11772;DHT22;12556;55.748;13.194;2022-10-31T02:13:05;13.60;99.90
11772;DHT22;12556;55.748;13.194;2022-10-31T02:15:35;13.60;99.90
11772;DHT22;12556;55.748;13.194;2022-10-31T02:18:02;13.60;99.90
11772;DHT22;12556;55.748;13.194;2022-10-31T02:20:33;13.60;99.90
11772;DHT22;12556;55.748;13.194;2022-10-31T02:26:34;13.60;99.90
11772;DHT22;12556;55.748;13.194;2022-10-31T02:29:15;13.60;99.90
11772;DHT22;12556;55.748;13.194;2022-10-31T02:31:50;13.60;99.90
11772;DHT22;12556;55.748;13.194;2022-10-31T02:34:24;13.60;99.90
11772;DHT22;12556;55.748;13.194;2022-10-31T02:36:55;13.60;99.90
11772;DHT22;12556;55.748;13.194;2022-10-31T02:39:26;13.60;99.90
11772;DHT22;12556;55.748;13.194;2022-10-31T02:42:03;13.60;99.90
11772;DHT22;12556;55.748;13.194;2022-10-31T02:44:35;13.60;99.90
11772;DHT22;12556;55.748;13.194;2022-10-31T02:47:06;13.70;99.90
11772;DHT22;12556;55.748;13.194;2022-10-31T02:49:39;13.60;99.90
11772;DHT22;12556;55.748;13.194;2022-10-31T02:52:16;13.70;99.90
11772;DHT22;12556;55.748;13.194;2022-10-31T02:54:45;13.70;99.90
11772;DHT22;12556;55.748;13.194;2022-10-31T02:57:13;13.70;99.90
11772;DHT22;12556;55.748;13.194;2022-10-31T02:59:44;13.70;99.90
11772;DHT22;12556;55.748;13.194;2022-10-31T03:02:33;13.70;99.90
11772;DHT22;12556;55.748;13.194;2022-10-31T03:05:24;13.70;99.90
11772;DHT22;12556;55.748;13.194;2022-10-31T03:07:59;13.60;99.90
11772;DHT22;12556;55.748;13.194;2022-10-31T03:10:33;13.60;99.90
11772;DHT22;12556;55.748;13.194;2022-10-31T03:13:07;13.60;99.90
11772;DHT22;12556;55.748;13.194;2022-10-31T03:15:39;13.60;99.90
11772;DHT22;12556;55.748;13.194;2022-10-31T03:18:11;13.60;99.90
11772;DHT22;12556;55.748;13.194;2022-10-31T03:20:41;13.60;99.90
11772;DHT22;12556;55.748;13.194;2022-10-31T03:23:14;13.60;99.90
11772;DHT22;12556;55.748;13.194;2022-10-31T03:25:42;13.60;99.90
11772;DHT22;12556;55.748;13.194;2022-10-31T03:28:12;13.60;99.90
11772;DHT22;12556;55.748;13.194;2022-10-31T03:30:42;13.60;99.90
11772;DHT22;12556;55.748;13.194;2022-10-31T03:33:16;13.60;99.90
11772;DHT22;12556;55.748;13.194;2022-10-31T03:35:47;13.50;99.90
11772;DHT22;12556;55.748;13.194;2022-10-31T03:38:15;13.60;99.90
11772;DHT22;12556;55.748;13.194;2022-10-31T03:40:45;13.60;99.90
11772;DHT22;12556;55.748;13.194;2022-10-31T03:43:30;13.60;99.90
11772;DHT22;12556;55.748;13.194;2022-10-31T03:45:59;13.50;99.90
11772;DHT22;12556;55.748;13.194;2022-10-31T03:48:27;13.60;99.90
11772;DHT22;12556;55.748;13.194;2022-10-31T03:50:59;13.50;99.90
11772;DHT22;12556;55.748;13.194;2022-10-31T03:53:33;13.50;99.90
11772;DHT22;12556;55.748;13.194;2022-10-31T03:56:04;13.50;99.90
11772;DHT22;12556;55.748;13.194;2022-10-31T03:58:36;13.40;99.90
11772;DHT22;12556;55.748;13.194;2022-10-31T04:01:06;13.40;99.90
11772;DHT22;12556;55.748;13.194;2022-10-31T04:03:37;13.40;99.90
11772;DHT22;12556;55.748;13.194;2022-10-31T04:06:07;13.40;99.90
11772;DHT22;12556;55.748;13.194;2022-10-31T04:08:40;13.40;99.90
11772;DHT22;12556;55.748;13.194;2022-10-31T04:11:09;13.40;99.90
11772;DHT22;12556;55.748;13.194;2022-10-31T04:13:40;13.40;99.90
11772;DHT22;12556;55.748;13.194;2022-10-31T04:16:09;13.30;99.90
11772;DHT22;12556;55.748;13.194;2022-10-31T04:18:38;13.30;99.90
11772;DHT22;12556;55.748;13.194;2022-10-31T04:21:07;13.30;99.90
11772;DHT22;12556;55.748;13.194;2022-10-31T04:23:35;13.30;99.90
11772;DHT22;12556;55.748;13.194;2022-10-31T04:26:03;13.30;99.90
11772;DHT22;12556;55.748;13.194;2022-10-31T04:28:30;13.20;99.90
11772;DHT22;12556;55.748;13.194;2022-10-31T04:30:58;13.30;99.90
11772;DHT22;12556;55.748;13.194;2022-10-31T04:33:25;13.20;99.90
11772;DHT22;12556;55.748;13.194;2022-10-31T04:35:53;13.20;99.90
11772;DHT22;12556;55.748;13.194;2022-10-31T04:38:20;13.20;99.90
11772;DHT22;12556;55.748;13.194;2022-10-31T04:40:47;13.20;99.90
11772;DHT22;12556;55.748;13.194;2022-10-31T04:43:14;13.20;99.90
11772;DHT22;12556;55.748;13.194;2022-10-31T04:45:41;13.20;99.90
11772;DHT22;12556;55.748;13.194;2022-10-31T04:48:08;13.10;99.90
11772;DHT22;12556;55.748;13.194;2022-10-31T04:50:35;13.10;99.90
11772;DHT22;12556;55.748;13.194;2022-10-31T04:53:03;13.10;99.90
11772;DHT22;12556;55.748;13.194;2022-10-31T04:55:30;13.10;99.90
11772;DHT22;12556;55.748;13.194;2022-10-31T04:57:57;13.10;99.90
11772;DHT22;12556;55.748;13.194;2022-10-31T05:00:24;13.10;99.90
11772;DHT22;12556;55.748;13.194;2022-10-31T05:02:53;13.10;99.90
11772;DHT22;12556;55.748;13.194;2022-10-31T05:05:22;13.10;99.90
11772;DHT22;12556;55.748;13.194;2022-10-31T05:07:50;13.20;99.90
11772;DHT22;12556;55.748;13.194;2022-10-31T05:10:20;13.20;99.90
11772;DHT22;12556;55.748;13.194;2022-10-31T05:12:48;13.20;99.90
11772;DHT22;12556;55.748;13.194;2022-10-31T05:15:16;13.20;99.90
11772;DHT22;12556;55.748;13.194;2022-10-31T05:17:43;13.20;99.90
11772;DHT22;12556;55.748;13.194;2022-10-31T05:20:11;13.20;99.90
11772;DHT22;12556;55.748;13.194;2022-10-31T05:22:42;13.20;99.90
11772;DHT22;12556;55.748;13.194;2022-10-31T05:25:10;13.20;99.90
11772;DHT22;12556;55.748;13.194;2022-10-31T05:27:40;13.20;99.90
11772;DHT22;12556;55.748;13.194;2022-10-31T05:30:08;13.20;99.90
11772;DHT22;12556;55.748;13.194;2022-10-31T05:32:38;13.20;99.90
11772;DHT22;12556;55.748;13.194;2022-10-31T05:35:06;13.20;99.90
11772;DHT22;12556;55.748;13.194;2022-10-31T05:37:34;13.20;99.90
11772;DHT22;12556;55.748;13.194;2022-10-31T05:40:01;13.20;99.90
11772;DHT22;12556;55.748;13.194;2022-10-31T05:42:28;13.20;99.90
11772;DHT22;12556;55.748;13.194;2022-10-31T05:44:57;13.30;99.90
11772;DHT22;12556;55.748;13.194;2022-10-31T05:47:24;13.30;99.90
11772;DHT22;12556;55.748;13.194;2022-10-31T05:49:51;13.30;99.90
11772;DHT22;12556;55.748;13.194;2022-10-31T05:52:18;13.30;99.90
11772;DHT22;12556;55.748;13.194;2022-10-31T05:54:45;13.30;99.90
11772;DHT22;12556;55.748;13.194;2022-10-31T05:57:12;13.30;99.90
11772;DHT22;12556;55.748;13.194;2022-10-31T05:59:39;13.30;99.90
11772;DHT22;12556;55.748;13.194;2022-10-31T06:02:07;13.30;99.90
11772;DHT22;12556;55.748;13.194;2022-10-31T06:04:34;13.30;99.90
11772;DHT22;12556;55.748;13.194;2022-10-31T06:07:01;13.30;99.90
11772;DHT22;12556;55.748;13.194;2022-10-31T06:09:27;13.30;99.90
11772;DHT22;12556;55.748;13.194;2022-10-31T06:11:54;13.30;99.90
11772;DHT22;12556;55.748;13.194;2022-10-31T06:14:21;13.30;99.90
11772;DHT22;12556;55.748;13.194;2022-10-31T06:16:48;13.30;99.90
11772;DHT22;12556;55.748;13.194;2022-10-31T06:19:16;13.40;99.90
11772;DHT22;12556;55.748;13.194;2022-10-31T06:21:43;13.40;99.90
11772;DHT22;12556;55.748;13.194;2022-10-31T06:24:10;13.40;99.90
11772;DHT22;12556;55.748;13.194;2022-10-31T06:26:37;13.40;99.90
11772;DHT22;12556;55.748;13.194;2022-10-31T06:29:04;13.50;99.90
11772;DHT22;12556;55.748;13.194;2022-10-31T06:31:31;13.40;99.90
11772;DHT22;12556;55.748;13.194;2022-10-31T06:33:58;13.50;99.90
11772;DHT22;12556;55.748;13.194;2022-10-31T06:36:26;13.50;99.90
11772;DHT22;12556;55.748;13.194;2022-10-31T06:38:53;13.50;99.90
11772;DHT22;12556;55.748;13.194;2022-10-31T06:41:20;13.60;99.90
11772;DHT22;12556;55.748;13.194;2022-10-31T06:43:47;13.50;99.90
11772;DHT22;12556;55.748;13.194;2022-10-31T06:46:14;13.50;99.90
11772;DHT22;12556;55.748;13.194;2022-10-31T06:48:41;13.50;99.90
11772;DHT22;12556;55.748;13.194;2022-10-31T06:51:08;13.50;99.90
11772;DHT22;12556;55.748;13.194;2022-10-31T06:53:36;13.50;99.90
11772;DHT22;12556;55.748;13.194;2022-10-31T06:56:04;13.60;99.90
11772;DHT22;12556;55.748;13.194;2022-10-31T06:58:30;13.60;99.90
11772;DHT22;12556;55.748;13.194;2022-10-31T07:00:59;13.60;99.90
11772;DHT22;12556;55.748;13.194;2022-10-31T07:03:26;13.70;99.90
11772;DHT22;12556;55.748;13.194;2022-10-31T07:05:55;13.60;99.90
11772;DHT22;12556;55.748;13.194;2022-10-31T07:08:22;13.60;99.90
11772;DHT22;12556;55.748;13.194;2022-10-31T07:10:53;13.70;99.90
11772;DHT22;12556;55.748;13.194;2022-10-31T07:13:21;13.70;99.90
11772;DHT22;12556;55.748;13.194;2022-10-31T07:15:52;13.70;99.90
11772;DHT22;12556;55.748;13.194;2022-10-31T07:18:19;13.70;99.90
11772;DHT22;12556;55.748;13.194;2022-10-31T07:20:47;13.70;99.90
11772;DHT22;12556;55.748;13.194;2022-10-31T07:23:14;13.70;99.90
11772;DHT22;12556;55.748;13.194;2022-10-31T07:25:41;13.80;99.90
11772;DHT22;12556;55.748;13.194;2022-10-31T07:28:10;13.80;99.90
11772;DHT22;12556;55.748;13.194;2022-10-31T07:30:37;13.80;99.90
11772;DHT22;12556;55.748;13.194;2022-10-31T07:33:05;13.80;99.90
11772;DHT22;12556;55.748;13.194;2022-10-31T07:35:35;13.90;99.90
11772;DHT22;12556;55.748;13.194;2022-10-31T07:38:08;13.90;99.90
11772;DHT22;12556;55.748;13.194;2022-10-31T07:40:35;14.00;99.90
11772;DHT22;12556;55.748;13.194;2022-10-31T07:43:02;13.90;99.90
11772;DHT22;12556;55.748;13.194;2022-10-31T07:45:31;13.90;99.90
11772;DHT22;12556;55.748;13.194;2022-10-31T07:47:58;14.00;99.90
11772;DHT22;12556;55.748;13.194;2022-10-31T07:50:26;13.90;99.90
11772;DHT22;12556;55.748;13.194;2022-10-31T07:53:00;14.00;99.90
11772;DHT22;12556;55.748;13.194;2022-10-31T07:55:28;14.00;99.90
11772;DHT22;12556;55.748;13.194;2022-10-31T07:57:56;14.00;99.90
11772;DHT22;12556;55.748;13.194;2022-10-31T08:00:23;14.10;99.90
11772;DHT22;12556;55.748;13.194;2022-10-31T08:02:58;14.10;99.90
11772;DHT22;12556;55.748;13.194;2022-10-31T08:05:25;14.10;99.90
11772;DHT22;12556;55.748;13.194;2022-10-31T08:07:52;14.20;99.90
11772;DHT22;12556;55.748;13.194;2022-10-31T08:10:20;14.20;99.90
11772;DHT22;12556;55.748;13.194;2022-10-31T08:12:52;14.20;99.90
11772;DHT22;12556;55.748;13.194;2022-10-31T08:15:20;14.20;99.90
11772;DHT22;12556;55.748;13.194;2022-10-31T08:17:47;14.20;99.90
11772;DHT22;12556;55.748;13.194;2022-10-31T08:20:16;14.20;99.90
11772;DHT22;12556;55.748;13.194;2022-10-31T08:22:43;14.20;99.90
11772;DHT22;12556;55.748;13.194;2022-10-31T08:25:10;14.30;99.90
11772;DHT22;12556;55.748;13.194;2022-10-31T08:27:37;14.30;99.90
11772;DHT22;12556;55.748;13.194;2022-10-31T08:30:04;14.30;99.90
11772;DHT22;12556;55.748;13.194;2022-10-31T08:32:32;14.30;99.90
11772;DHT22;12556;55.748;13.194;2022-10-31T08:34:58;14.30;99.90
11772;DHT22;12556;55.748;13.194;2022-10-31T08:37:27;14.40;99.90
11772;DHT22;12556;55.748;13.194;2022-10-31T08:39:53;14.40;99.90
11772;DHT22;12556;55.748;13.194;2022-10-31T08:42:20;14.40;99.90
11772;DHT22;12556;55.748;13.194;2022-10-31T08:44:47;14.40;99.90
11772;DHT22;12556;55.748;13.194;2022-10-31T08:47:14;14.50;99.90
11772;DHT22;12556;55.748;13.194;2022-10-31T08:49:41;14.50;99.90
11772;DHT22;12556;55.748;13.194;2022-10-31T08:52:08;14.60;99.90
11772;DHT22;12556;55.748;13.194;2022-10-31T08:54:37;14.50;99.90
11772;DHT22;12556;55.748;13.194;2022-10-31T08:57:03;14.50;99.90
11772;DHT22;12556;55.748;13.194;2022-10-31T08:59:30;14.60;99.90
11772;DHT22;12556;55.748;13.194;2022-10-31T09:01:57;14.60;99.90
11772;DHT22;12556;55.748;13.194;2022-10-31T09:04:24;14.60;99.90
11772;DHT22;12556;55.748;13.194;2022-10-31T09:06:51;14.70;99.90
11772;DHT22;12556;55.748;13.194;2022-10-31T09:09:18;14.70;99.90
11772;DHT22;12556;55.748;13.194;2022-10-31T09:11:46;14.80;99.90
11772;DHT22;12556;55.748;13.194;2022-10-31T09:14:13;14.80;99.90
11772;DHT22;12556;55.748;13.194;2022-10-31T09:16:40;14.80;99.90
11772;DHT22;12556;55.748;13.194;2022-10-31T09:19:07;14.80;99.90
11772;DHT22;12556;55.748;13.194;2022-10-31T09:21:33;14.80;99.90
11772;DHT22;12556;55.748;13.194;2022-10-31T09:24:00;14.80;99.90
11772;DHT22;12556;55.748;13.194;2022-10-31T09:26:27;14.80;99.90
11772;DHT22;12556;55.748;13.194;2022-10-31T09:28:55;14.80;99.90
11772;DHT22;12556;55.748;13.194;2022-10-31T09:31:23;14.80;99.90
11772;DHT22;12556;55.748;13.194;2022-10-31T09:33:50;14.70;99.90
11772;DHT22;12556;55.748;13.194;2022-10-31T09:36:19;14.70;99.90
11772;DHT22;12556;55.748;13.194;2022-10-31T09:38:46;14.70;99.90
11772;DHT22;12556;55.748;13.194;2022-10-31T09:41:19;14.70;99.90
11772;DHT22;12556;55.748;13.194;2022-10-31T09:43:54;14.70;99.90
11772;DHT22;12556;55.748;13.194;2022-10-31T09:46:32;14.70;99.90
11772;DHT22;12556;55.748;13.194;2022-10-31T09:49:22;14.70;99.90
11772;DHT22;12556;55.748;13.194;2022-10-31T09:51:55;14.70;99.90
11772;DHT22;12556;55.748;13.194;2022-10-31T09:54:29;14.60;99.90
11772;DHT22;12556;55.748;13.194;2022-10-31T09:56:57;14.60;99.90
11772;DHT22;12556;55.748;13.194;2022-10-31T09:59:30;14.60;99.90
11772;DHT22;12556;55.748;13.194;2022-10-31T10:02:02;14.60;99.90
11772;DHT22;12556;55.748;13.194;2022-10-31T10:04:38;14.60;99.90
11772;DHT22;12556;55.748;13.194;2022-10-31T10:07:14;14.60;99.90
11772;DHT22;12556;55.748;13.194;2022-10-31T10:09:43;14.50;99.90
11772;DHT22;12556;55.748;13.194;2022-10-31T10:12:17;14.50;99.90
11772;DHT22;12556;55.748;13.194;2022-10-31T10:17:45;14.50;99.90
11772;DHT22;12556;55.748;13.194;2022-10-31T10:20:24;14.50;99.90
11772;DHT22;12556;55.748;13.194;2022-10-31T10:23:03;14.50;99.90
11772;DHT22;12556;55.748;13.194;2022-10-31T10:25:37;14.50;99.90
11772;DHT22;12556;55.748;13.194;2022-10-31T10:28:13;14.50;99.90
11772;DHT22;12556;55.748;13.194;2022-10-31T10:30:46;14.50;99.90
11772;DHT22;12556;55.748;13.194;2022-10-31T10:33:19;14.60;99.90
11772;DHT22;12556;55.748;13.194;2022-10-31T10:35:50;14.60;99.90
11772;DHT22;12556;55.748;13.194;2022-10-31T10:38:23;14.60;99.90
11772;DHT22;12556;55.748;13.194;2022-10-31T10:40:53;14.60;99.90
11772;DHT22;12556;55.748;13.194;2022-10-31T10:43:23;14.60;99.90
11772;DHT22;12556;55.748;13.194;2022-10-31T10:45:53;14.70;99.90
11772;DHT22;12556;55.748;13.194;2022-10-31T10:48:45;14.70;99.90
11772;DHT22;12556;55.748;13.194;2022-10-31T10:51:22;14.70;99.90
11772;DHT22;12556;55.748;13.194;2022-10-31T10:54:02;14.80;99.90
11772;DHT22;12556;55.748;13.194;2022-10-31T10:56:40;14.70;99.90
11772;DHT22;12556;55.748;13.194;2022-10-31T10:59:12;14.80;99.90
11772;DHT22;12556;55.748;13.194;2022-10-31T11:01:40;14.80;99.90
11772;DHT22;12556;55.748;13.194;2022-10-31T11:04:28;14.80;99.90
11772;DHT22;12556;55.748;13.194;2022-10-31T11:07:00;14.80;99.90
11772;DHT22;12556;55.748;13.194;2022-10-31T11:09:27;14.80;99.90
11772;DHT22;12556;55.748;13.194;2022-10-31T11:11:55;14.80;99.90
11772;DHT22;12556;55.748;13.194;2022-10-31T11:14:23;14.80;99.90
11772;DHT22;12556;55.748;13.194;2022-10-31T11:16:53;14.90;99.90
11772;DHT22;12556;55.748;13.194;2022-10-31T11:19:24;14.90;99.90
11772;DHT22;12556;55.748;13.194;2022-10-31T11:21:52;14.90;99.90
11772;DHT22;12556;55.748;13.194;2022-10-31T11:24:21;15.00;99.90
11772;DHT22;12556;55.748;13.194;2022-10-31T11:26:50;15.00;99.90
11772;DHT22;12556;55.748;13.194;2022-10-31T11:29:21;15.00;99.90
11772;DHT22;12556;55.748;13.194;2022-10-31T11:31:51;15.00;99.90
11772;DHT22;12556;55.748;13.194;2022-10-31T11:34:30;15.00;99.90
11772;DHT22;12556;55.748;13.194;2022-10-31T11:37:03;15.10;99.90
11772;DHT22;12556;55.748;13.194;2022-10-31T11:39:41;15.10;99.90
11772;DHT22;12556;55.748;13.194;2022-10-31T11:42:09;15.10;99.90
11772;DHT22;12556;55.748;13.194;2022-10-31T11:44:36;15.10;99.90
11772;DHT22;12556;55.748;13.194;2022-10-31T11:47:04;15.20;99.90
11772;DHT22;12556;55.748;13.194;2022-10-31T11:49:35;15.20;99.90
11772;DHT22;12556;55.748;13.194;2022-10-31T11:52:06;15.20;99.90
11772;DHT22;12556;55.748;13.194;2022-10-31T11:54:38;15.30;99.90
11772;DHT22;12556;55.748;13.194;2022-10-31T11:57:22;15.30;99.90
11772;DHT22;12556;55.748;13.194;2022-10-31T11:59:51;15.30;99.90
11772;DHT22;12556;55.748;13.194;2022-10-31T12:02:19;15.30;99.90
11772;DHT22;12556;55.748;13.194;2022-10-31T12:04:55;15.40;99.90
11772;DHT22;12556;55.748;13.194;2022-10-31T12:07:24;15.30;99.90
11772;DHT22;12556;55.748;13.194;2022-10-31T12:09:52;15.40;99.90
11772;DHT22;12556;55.748;13.194;2022-10-31T12:12:31;15.40;99.90
11772;DHT22;12556;55.748;13.194;2022-10-31T12:15:16;15.50;99.90
11772;DHT22;12556;55.748;13.194;2022-10-31T12:17:51;15.50;99.90
11772;DHT22;12556;55.748;13.194;2022-10-31T12:20:26;15.50;99.90
11772;DHT22;12556;55.748;13.194;2022-10-31T12:23:03;15.50;99.90
11772;DHT22;12556;55.748;13.194;2022-10-31T12:25:40;15.50;99.90
11772;DHT22;12556;55.748;13.194;2022-10-31T12:28:29;15.50;99.90
11772;DHT22;12556;55.748;13.194;2022-10-31T12:31:11;15.50;99.90
11772;DHT22;12556;55.748;13.194;2022-10-31T12:33:50;15.50;99.90
11772;DHT22;12556;55.748;13.194;2022-10-31T12:36:35;15.50;99.90
11772;DHT22;12556;55.748;13.194;2022-10-31T12:39:24;15.50;99.90
11772;DHT22;12556;55.748;13.194;2022-10-31T12:41:55;15.50;99.90
11772;DHT22;12556;55.748;13.194;2022-10-31T12:47:40;15.50;99.90
11772;DHT22;12556;55.748;13.194;2022-10-31T12:50:28;15.50;99.90
11772;DHT22;12556;55.748;13.194;2022-10-31T12:53:12;15.50;99.90
11772;DHT22;12556;55.748;13.194;2022-10-31T12:55:53;15.40;99.90
11772;DHT22;12556;55.748;13.194;2022-10-31T12:58:24;15.50;99.90
11772;DHT22;12556;55.748;13.194;2022-10-31T13:01:00;15.50;99.90
11772;DHT22;12556;55.748;13.194;2022-10-31T13:03:32;15.60;99.90
11772;DHT22;12556;55.748;13.194;2022-10-31T13:06:05;15.60;99.90
11772;DHT22;12556;55.748;13.194;2022-10-31T13:08:39;15.60;99.90
11772;DHT22;12556;55.748;13.194;2022-10-31T13:11:11;15.70;99.90
11772;DHT22;12556;55.748;13.194;2022-10-31T13:13:42;15.70;99.90
11772;DHT22;12556;55.748;13.194;2022-10-31T13:16:14;15.80;99.90
11772;DHT22;12556;55.748;13.194;2022-10-31T13:18:45;15.80;99.90
11772;DHT22;12556;55.748;13.194;2022-10-31T13:21:17;15.80;99.90
11772;DHT22;12556;55.748;13.194;2022-10-31T13:23:49;15.80;99.90
11772;DHT22;12556;55.748;13.194;2022-10-31T13:26:21;15.80;99.90
11772;DHT22;12556;55.748;13.194;2022-10-31T13:28:54;15.90;99.90
11772;DHT22;12556;55.748;13.194;2022-10-31T13:31:24;15.90;99.90
11772;DHT22;12556;55.748;13.194;2022-10-31T13:33:53;15.90;99.90
11772;DHT22;12556;55.748;13.194;2022-10-31T13:36:29;15.90;99.90
11772;DHT22;12556;55.748;13.194;2022-10-31T13:39:05;15.90;99.90
11772;DHT22;12556;55.748;13.194;2022-10-31T13:41:42;15.90;99.90
11772;DHT22;12556;55.748;13.194;2022-10-31T13:44:13;15.90;99.90
11772;DHT22;12556;55.748;13.194;2022-10-31T13:46:42;15.90;99.90
11772;DHT22;12556;55.748;13.194;2022-10-31T13:49:36;15.90;99.90
11772;DHT22;12556;55.748;13.194;2022-10-31T13:52:15;15.90;99.90
11772;DHT22;12556;55.748;13.194;2022-10-31T13:54:45;15.90;99.90
11772;DHT22;12556;55.748;13.194;2022-10-31T13:57:18;15.90;99.90
11772;DHT22;12556;55.748;13.194;2022-10-31T13:59:50;15.90;99.90
11772;DHT22;12556;55.748;13.194;2022-10-31T14:02:22;15.90;99.90
11772;DHT22;12556;55.748;13.194;2022-10-31T14:04:53;15.80;99.90
11772;DHT22;12556;55.748;13.194;2022-10-31T14:07:23;15.80;99.90
11772;DHT22;12556;55.748;13.194;2022-10-31T14:09:56;15.80;99.90
11772;DHT22;12556;55.748;13.194;2022-10-31T14:12:28;15.80;99.90
11772;DHT22;12556;55.748;13.194;2022-10-31T14:14:59;15.80;99.90
11772;DHT22;12556;55.748;13.194;2022-10-31T14:17:29;15.80;99.90
11772;DHT22;12556;55.748;13.194;2022-10-31T14:20:22;15.70;99.90
11772;DHT22;12556;55.748;13.194;2022-10-31T14:22:49;15.70;99.90
11772;DHT22;12556;55.748;13.194;2022-10-31T14:25:28;15.70;99.90
11772;DHT22;12556;55.748;13.194;2022-10-31T14:27:57;15.60;99.90
11772;DHT22;12556;55.748;13.194;2022-10-31T14:30:25;15.60;99.90
11772;DHT22;12556;55.748;13.194;2022-10-31T14:32:54;15.60;99.90
11772;DHT22;12556;55.748;13.194;2022-10-31T14:35:24;15.50;99.90
11772;DHT22;12556;55.748;13.194;2022-10-31T14:38:26;15.60;99.90
11772;DHT22;12556;55.748;13.194;2022-10-31T14:41:18;15.50;99.90
11772;DHT22;12556;55.748;13.194;2022-10-31T14:44:14;15.40;99.90
11772;DHT22;12556;55.748;13.194;2022-10-31T14:46:49;15.40;99.90
11772;DHT22;12556;55.748;13.194;2022-10-31T14:49:36;15.40;99.90
11772;DHT22;12556;55.748;13.194;2022-10-31T14:52:06;15.30;99.90
11772;DHT22;12556;55.748;13.194;2022-10-31T14:54:38;15.20;99.90
11772;DHT22;12556;55.748;13.194;2022-10-31T14:57:14;15.20;99.90
11772;DHT22;12556;55.748;13.194;2022-10-31T14:59:47;15.20;99.90
11772;DHT22;12556;55.748;13.194;2022-10-31T15:02:19;15.10;99.90
11772;DHT22;12556;55.748;13.194;2022-10-31T15:04:48;15.10;99.90
11772;DHT22;12556;55.748;13.194;2022-10-31T15:07:19;15.00;99.90
11772;DHT22;12556;55.748;13.194;2022-10-31T15:09:55;15.00;99.90
11772;DHT22;12556;55.748;13.194;2022-10-31T15:12:26;14.90;99.90
11772;DHT22;12556;55.748;13.194;2022-10-31T15:14:53;14.90;99.90
11772;DHT22;12556;55.748;13.194;2022-10-31T15:17:21;14.90;99.90
11772;DHT22;12556;55.748;13.194;2022-10-31T15:19:48;14.90;99.90
11772;DHT22;12556;55.748;13.194;2022-10-31T15:22:17;14.90;99.90
11772;DHT22;12556;55.748;13.194;2022-10-31T15:24:45;14.80;99.90
11772;DHT22;12556;55.748;13.194;2022-10-31T15:27:14;14.80;99.90
11772;DHT22;12556;55.748;13.194;2022-10-31T15:29:51;14.80;99.90
11772;DHT22;12556;55.748;13.194;2022-10-31T15:32:19;14.80;99.90
11772;DHT22;12556;55.748;13.194;2022-10-31T15:34:49;14.80;99.90
11772;DHT22;12556;55.748;13.194;2022-10-31T15:37:17;14.80;99.90
11772;DHT22;12556;55.748;13.194;2022-10-31T15:39:46;14.80;99.90
11772;DHT22;12556;55.748;13.194;2022-10-31T15:42:22;14.70;99.90
11772;DHT22;12556;55.748;13.194;2022-10-31T15:44:53;14.70;99.90
11772;DHT22;12556;55.748;13.194;2022-10-31T15:47:23;14.60;99.90